Terminal Aerodrome Forecast
Issued by NWS Jacksonville, FL

Home | Current Version | Previous Version | Text Only | Print | Product List | Glossary On
Versions: 1 2 3 4 5 6 7 8 9 10 11 12 13 14 15 16 17 18 19 20 21 22
000
FTUS42 KJAX 012341
TAFJAX
TAF
KJAX 012341Z 0200/0224 08007KT P6SM SCT060
     FM020900 06003KT 5SM BR SCT010 BKN200
     FM021300 10012KT P6SM SCT040 BKN200=

USA.gov is the U.S. government's official web portal to all federal, state and local government web resources and services.